Time;durP1;ratioP1;P1;durP2;ratioP2;P2;SDS_P1;SDS_P2;PMS_P1;PMS_P2;Temp;Humidity;BMP_temperature;BMP_pressure;BME280_temperature;BME280_humidity;BME280_pressure;Samples;Min_cycle;Max_cycle;Signal;HPM_P1;HPM_P2
2023/04/01 00:01:55;;;;;;;5.30;1.20;;;11.00;99.90;;;;;;5028396;28;20459;-71
2023/04/01 00:04:41;;;;;;;4.10;1.60;;;11.00;99.90;;;;;;5034095;28;20455;-71
2023/04/01 00:07:26;;;;;;;5.07;1.30;;;11.00;99.90;;;;;;5030219;28;20506;-71
2023/04/01 00:10:14;;;;;;;6.97;1.53;;;11.00;99.90;;;;;;5034769;28;20447;-71
2023/04/01 00:13:01;;;;;;;4.87;1.10;;;11.00;99.90;;;;;;5021199;28;20923;-71
2023/04/01 00:15:47;;;;;;;6.10;1.30;;;10.90;99.90;;;;;;5029796;28;20470;-73
2023/04/01 00:18:32;;;;;;;4.43;1.30;;;10.90;99.90;;;;;;5025018;28;20479;-71
2023/04/01 00:21:20;;;;;;;6.10;1.20;;;10.80;99.90;;;;;;5021999;28;20459;-71
2023/04/01 00:24:06;;;;;;;9.60;1.27;;;10.90;99.90;;;;;;5026228;28;20459;-71
2023/04/01 00:26:52;;;;;;;5.87;1.90;;;10.80;99.90;;;;;;5018244;28;20456;-70
2023/04/01 00:29:39;;;;;;;4.83;1.43;;;10.80;99.90;;;;;;5022497;28;20458;-71
2023/04/01 00:32:26;;;;;;;3.60;1.30;;;10.80;99.90;;;;;;5017937;28;20426;-71
2023/04/01 00:35:12;;;;;;;6.33;2.07;;;10.70;99.90;;;;;;5025785;28;20422;-71
2023/04/01 00:37:57;;;;;;;4.33;1.10;;;10.70;99.90;;;;;;5022108;28;20498;-72
2023/04/01 00:40:45;;;;;;;7.03;1.23;;;10.70;99.90;;;;;;5026666;28;20431;-71
2023/04/01 00:43:31;;;;;;;4.73;1.80;;;10.70;99.90;;;;;;5027011;28;20447;-71
2023/04/01 00:46:18;;;;;;;4.47;1.30;;;10.70;99.90;;;;;;5038209;28;20426;-72
2023/04/01 00:49:04;;;;;;;6.83;1.47;;;10.80;99.90;;;;;;5026383;28;21003;-71
2023/04/01 00:51:52;;;;;;;4.33;1.17;;;10.80;99.90;;;;;;5021001;28;21007;-71
2023/04/01 00:54:41;;;;;;;3.27;1.57;;;10.90;99.90;;;;;;5026504;28;20447;-72
2023/04/01 00:57:31;;;;;;;3.20;1.00;;;10.90;99.90;;;;;;5031508;28;20464;-71
2023/04/01 01:00:18;;;;;;;5.30;1.37;;;10.80;99.90;;;;;;5027650;28;20967;-71
2023/04/01 01:03:05;;;;;;;4.10;1.23;;;10.80;99.90;;;;;;5027358;28;20449;-71
2023/04/01 01:06:21;;;;;;;4.43;1.60;;;10.90;99.90;;;;;;5023458;28;20423;-71
2023/04/01 01:09:31;;;;;;;4.10;1.37;;;10.80;99.90;;;;;;5028464;28;21006;-71
2023/04/01 01:12:21;;;;;;;4.20;0.97;;;10.90;99.90;;;;;;5018428;28;20454;-71
2023/04/01 01:15:14;;;;;;;3.60;1.23;;;10.90;99.90;;;;;;5024419;28;20835;-71
2023/04/01 01:18:05;;;;;;;4.53;1.17;;;10.90;99.90;;;;;;5028648;28;20482;-74
2023/04/01 01:21:28;;;;;;;2.60;0.97;;;10.90;99.90;;;;;;5023683;28;20458;-71
2023/04/01 01:24:26;;;;;;;3.53;1.20;;;11.00;99.90;;;;;;5034546;28;20445;-71
2023/04/01 01:27:13;;;;;;;10.63;1.10;;;10.90;99.90;;;;;;5023432;28;20571;-70
2023/04/01 01:30:26;;;;;;;5.00;1.40;;;10.90;99.90;;;;;;5039525;28;20558;-71
2023/04/01 01:33:26;;;;;;;8.83;1.47;;;10.90;99.90;;;;;;5027927;28;20436;-71
2023/04/01 01:36:16;;;;;;;6.80;1.33;;;10.90;99.90;;;;;;5034414;28;20574;-71
2023/04/01 01:39:04;;;;;;;9.50;1.40;;;10.90;99.90;;;;;;5035695;28;20473;-71
2023/04/01 01:41:50;;;;;;;4.47;1.30;;;10.80;99.90;;;;;;5025625;28;20504;-70
2023/04/01 01:44:37;;;;;;;9.73;1.83;;;10.80;99.90;;;;;;5031522;28;21251;-71
2023/04/01 01:47:25;;;;;;;9.37;1.60;;;10.80;99.90;;;;;;5035905;28;21003;-71
2023/04/01 01:50:11;;;;;;;11.13;1.87;;;10.80;99.90;;;;;;5038477;28;20931;-72
2023/04/01 01:53:06;;;;;;;3.43;1.30;;;10.90;99.90;;;;;;5034961;28;20451;-70
2023/04/01 01:55:52;;;;;;;5.00;1.47;;;10.90;99.90;;;;;;5035919;28;20534;-71
2023/04/01 01:58:41;;;;;;;8.90;1.50;;;10.80;99.90;;;;;;5036611;28;21061;-70
2023/04/01 02:01:30;;;;;;;4.83;1.23;;;10.80;99.90;;;;;;5020261;28;20475;-71
2023/04/01 02:04:18;;;;;;;6.10;1.57;;;10.80;99.90;;;;;;5030698;28;20451;-74
2023/04/01 02:07:08;;;;;;;13.50;2.40;;;10.90;99.90;;;;;;5036679;28;20441;-72
2023/04/01 02:09:55;;;;;;;8.40;1.70;;;10.90;99.90;;;;;;5029022;28;20569;-72
2023/04/01 02:12:43;;;;;;;7.40;2.60;;;10.80;99.90;;;;;;5035653;28;20439;-73
2023/04/01 02:15:32;;;;;;;4.90;1.37;;;10.80;99.90;;;;;;5038380;28;20978;-72
2023/04/01 02:18:19;;;;;;;7.53;1.10;;;10.80;99.90;;;;;;5033640;28;20510;-71
2023/04/01 02:21:06;;;;;;;3.23;1.03;;;10.80;99.90;;;;;;5027719;28;20450;-72
2023/04/01 02:23:54;;;;;;;9.70;1.80;;;10.80;99.90;;;;;;5035287;28;21172;-72
2023/04/01 02:26:42;;;;;;;12.73;1.40;;;10.80;99.90;;;;;;5035442;28;20510;-72
2023/04/01 02:29:27;;;;;;;8.07;1.27;;;10.90;99.90;;;;;;5073055;22;21042;-87
2023/04/01 02:32:15;;;;;;;5.43;1.70;;;10.80;99.90;;;;;;5077784;28;20440;-87
2023/04/01 02:35:05;;;;;;;4.53;1.10;;;10.90;99.90;;;;;;5075414;28;21050;-86
2023/04/01 02:37:52;;;;;;;7.50;1.27;;;10.90;99.90;;;;;;5050522;28;20422;-86
2023/04/01 02:40:47;;;;;;;7.00;1.70;;;10.80;99.90;;;;;;5047195;28;20514;-86
2023/04/01 02:43:34;;;;;;;12.50;1.90;;;10.80;99.90;;;;;;5045911;28;20437;-86
2023/04/01 02:46:20;;;;;;;8.77;1.37;;;10.90;99.90;;;;;;5052376;28;20469;-86
2023/04/01 02:49:06;;;;;;;4.93;1.00;;;10.90;99.90;;;;;;5061519;28;20416;-87
2023/04/01 02:51:52;;;;;;;5.27;1.50;;;10.90;99.90;;;;;;5050891;28;20446;-86
2023/04/01 02:54:38;;;;;;;5.80;1.33;;;10.90;99.90;;;;;;5046894;28;20724;-86
2023/04/01 02:57:24;;;;;;;5.80;1.23;;;10.90;99.90;;;;;;5052503;28;20454;-86
2023/04/01 03:00:12;;;;;;;3.83;1.13;;;10.90;99.90;;;;;;5052224;28;20453;-86
2023/04/01 03:02:58;;;;;;;4.80;1.40;;;10.80;99.90;;;;;;5062815;28;20972;-86
2023/04/01 03:05:43;;;;;;;5.13;1.43;;;10.90;99.90;;;;;;5065533;28;20480;-86
2023/04/01 03:08:29;;;;;;;5.90;1.10;;;10.90;99.90;;;;;;5052363;28;21025;-86
2023/04/01 03:11:15;;;;;;;4.47;1.07;;;10.90;99.90;;;;;;5055218;28;20424;-86
2023/04/01 03:14:01;;;;;;;5.83;1.40;;;10.90;99.90;;;;;;5053467;28;20412;-86
2023/04/01 03:16:48;;;;;;;5.57;1.20;;;11.00;99.90;;;;;;5047691;28;20834;-87
2023/04/01 03:19:34;;;;;;;5.53;1.20;;;10.90;99.90;;;;;;5051506;28;20467;-86
2023/04/01 03:22:20;;;;;;;5.53;1.50;;;10.90;99.90;;;;;;5057399;28;20453;-87
2023/04/01 03:25:08;;;;;;;7.13;1.10;;;10.90;99.90;;;;;;5057505;28;20462;-86
2023/04/01 03:27:54;;;;;;;6.70;1.33;;;10.80;99.90;;;;;;5058386;28;20547;-86
2023/04/01 03:30:40;;;;;;;5.57;1.17;;;10.80;99.90;;;;;;5048349;28;20545;-86
2023/04/01 03:33:27;;;;;;;3.33;1.27;;;10.80;99.90;;;;;;5052878;28;20923;-86
2023/04/01 03:36:13;;;;;;;6.30;1.37;;;10.80;99.90;;;;;;5061844;28;20520;-86
2023/04/01 03:38:59;;;;;;;4.80;1.23;;;10.80;99.90;;;;;;5052900;28;20506;-87
2023/04/01 03:41:44;;;;;;;3.27;1.93;;;10.80;99.90;;;;;;5054361;28;20445;-86
2023/04/01 03:44:32;;;;;;;5.60;1.10;;;10.70;99.90;;;;;;5052185;28;20458;-86
2023/04/01 03:47:18;;;;;;;5.07;1.37;;;10.70;99.90;;;;;;5054015;28;20827;-86
2023/04/01 03:50:06;;;;;;;7.90;1.57;;;10.70;99.90;;;;;;5053370;28;20445;-86
2023/04/01 03:52:52;;;;;;;8.07;1.20;;;10.80;99.90;;;;;;5052016;28;20867;-86
2023/04/01 03:55:38;;;;;;;7.33;1.23;;;10.80;99.90;;;;;;5056810;28;20540;-86
2023/04/01 03:58:24;;;;;;;2.80;1.07;;;10.80;99.90;;;;;;5050426;28;20518;-87
2023/04/01 04:01:18;;;;;;;3.83;1.03;;;10.80;99.90;;;;;;5046261;28;20961;-87
2023/04/01 04:04:05;;;;;;;3.23;1.00;;;10.80;99.90;;;;;;5059569;28;21011;-88
2023/04/01 04:06:52;;;;;;;3.20;1.10;;;10.80;99.90;;;;;;5054131;28;21016;-87
2023/04/01 04:09:38;;;;;;;6.53;1.33;;;10.80;99.90;;;;;;5043864;28;20459;-87
2023/04/01 04:12:23;;;;;;;3.63;1.10;;;10.80;99.90;;;;;;5060641;28;20427;-86
2023/04/01 04:15:10;;;;;;;6.97;1.47;;;10.80;99.90;;;;;;5054280;28;20443;-86
2023/04/01 04:17:55;;;;;;;7.07;1.23;;;10.80;99.90;;;;;;5056491;28;20489;-86
2023/04/01 04:20:46;;;;;;;2.80;1.07;;;10.80;99.90;;;;;;5049023;28;20459;-87
2023/04/01 04:23:34;;;;;;;5.23;1.43;;;10.80;99.90;;;;;;5053287;28;20517;-86
2023/04/01 04:26:19;;;;;;;5.40;1.53;;;10.80;99.90;;;;;;5056544;28;20620;-86
2023/04/01 04:29:05;;;;;;;2.23;0.70;;;10.90;99.90;;;;;;5048178;28;20469;-86
2023/04/01 04:31:50;;;;;;;4.70;1.17;;;10.90;99.90;;;;;;5060612;28;20586;-86
2023/04/01 04:34:36;;;;;;;4.13;1.03;;;10.90;99.90;;;;;;5047635;28;20432;-87
2023/04/01 04:37:22;;;;;;;4.63;1.47;;;10.80;99.90;;;;;;5057288;28;20433;-87
2023/04/01 04:40:10;;;;;;;5.57;1.23;;;10.80;99.90;;;;;;5049711;28;20493;-86
2023/04/01 04:42:56;;;;;;;2.97;1.17;;;10.80;99.90;;;;;;5051917;28;20488;-87
2023/04/01 04:45:42;;;;;;;6.37;1.37;;;10.80;99.90;;;;;;5048060;28;20539;-86
2023/04/01 04:48:28;;;;;;;5.13;1.50;;;10.70;99.90;;;;;;5050548;28;20442;-87
2023/04/01 04:51:18;;;;;;;6.73;1.03;;;10.60;99.90;;;;;;5054159;28;20429;-86
2023/04/01 04:54:04;;;;;;;3.20;0.90;;;10.70;99.90;;;;;;5045683;28;20437;-87
2023/04/01 04:56:52;;;;;;;2.93;0.97;;;10.70;99.90;;;;;;5058089;28;20474;-87
2023/04/01 04:59:38;;;;;;;5.03;1.20;;;10.80;99.90;;;;;;5048006;28;20450;-87
2023/04/01 05:02:24;;;;;;;7.77;1.93;;;10.80;99.90;;;;;;5042012;28;20425;-87
2023/04/01 05:05:10;;;;;;;5.80;1.17;;;10.80;99.90;;;;;;5056332;28;20420;-86
2023/04/01 05:07:56;;;;;;;2.73;1.10;;;10.80;99.90;;;;;;5052461;28;20568;-87
2023/04/01 05:10:41;;;;;;;4.83;0.97;;;10.70;99.90;;;;;;5043657;28;20480;-86
2023/04/01 05:13:29;;;;;;;6.87;1.67;;;10.70;99.90;;;;;;5049696;28;20425;-87
2023/04/01 05:16:17;;;;;;;3.50;1.20;;;10.70;99.90;;;;;;5044174;28;20478;-87
2023/04/01 05:19:03;;;;;;;10.60;1.20;;;10.60;99.90;;;;;;5048410;28;20513;-86
2023/04/01 05:21:48;;;;;;;11.80;1.27;;;10.60;99.90;;;;;;5058318;28;20431;-86
2023/04/01 05:24:34;;;;;;;2.70;1.07;;;10.50;99.90;;;;;;5057781;28;20449;-86
2023/04/01 05:27:21;;;;;;;7.53;2.37;;;10.40;99.90;;;;;;5049527;28;20855;-86
2023/04/01 05:30:09;;;;;;;4.67;1.20;;;10.40;99.90;;;;;;5054727;28;20526;-87
2023/04/01 05:32:55;;;;;;;6.30;2.30;;;10.40;99.90;;;;;;5052691;28;20566;-86
2023/04/01 05:35:41;;;;;;;3.77;1.30;;;10.30;99.90;;;;;;5053504;28;20469;-86
2023/04/01 05:38:27;;;;;;;3.03;1.20;;;10.30;99.90;;;;;;5049252;28;20461;-87
2023/04/01 05:41:13;;;;;;;7.90;1.90;;;10.40;99.90;;;;;;5060078;28;20489;-86
2023/04/01 05:43:59;;;;;;;2.73;1.10;;;10.30;99.90;;;;;;5052269;28;20460;-86
2023/04/01 05:46:46;;;;;;;5.80;1.20;;;10.30;99.90;;;;;;5050631;28;20465;-86
2023/04/01 05:49:34;;;;;;;9.67;2.03;;;10.30;99.90;;;;;;5049788;28;20443;-86
2023/04/01 05:52:20;;;;;;;4.07;1.20;;;10.30;99.90;;;;;;5059216;28;20426;-86
2023/04/01 05:55:06;;;;;;;5.60;1.50;;;10.40;99.90;;;;;;5063325;28;20466;-86
2023/04/01 05:57:53;;;;;;;5.37;1.40;;;10.30;99.90;;;;;;5046557;28;20450;-87
2023/04/01 06:00:39;;;;;;;4.40;1.37;;;10.30;99.90;;;;;;5055006;28;20436;-87
2023/04/01 06:03:26;;;;;;;5.43;1.23;;;10.40;99.90;;;;;;5043806;28;20453;-86
2023/04/01 06:06:15;;;;;;;3.80;1.00;;;10.30;99.90;;;;;;5040336;28;20539;-87
2023/04/01 06:09:08;;;;;;;9.17;1.87;;;10.30;99.90;;;;;;5051947;28;20531;-87
2023/04/01 06:12:15;;;;;;;4.90;2.33;;;10.20;99.90;;;;;;5052263;28;20442;-86
2023/04/01 06:15:14;;;;;;;4.90;1.77;;;10.40;99.90;;;;;;5059809;28;21070;-87
2023/04/01 06:18:46;;;;;;;4.07;1.60;;;10.30;99.90;;;;;;5047069;28;20504;-86
2023/04/01 06:22:17;;;;;;;5.53;1.40;;;10.40;99.90;;;;;;5044770;28;20525;-86
2023/04/01 06:25:16;;;;;;;3.83;1.20;;;10.50;99.90;;;;;;4995534;28;20523;-87
2023/04/01 06:28:49;;;;;;;5.03;1.20;;;10.40;99.90;;;;;;4988404;28;20462;-87
2023/04/01 06:32:02;;;;;;;6.70;1.57;;;10.40;99.90;;;;;;5056311;28;20470;-87
2023/04/01 06:35:06;;;;;;;4.70;1.40;;;10.50;99.90;;;;;;5052095;28;20454;-87
2023/04/01 06:38:08;;;;;;;7.67;1.33;;;10.50;99.90;;;;;;5054166;28;20588;-86
2023/04/01 06:41:29;;;;;;;6.10;2.17;;;10.30;99.90;;;;;;5053378;28;20627;-86
2023/04/01 06:44:21;;;;;;;3.13;0.90;;;10.40;99.90;;;;;;5010013;28;20501;-88
2023/04/01 06:47:21;;;;;;;4.80;1.20;;;10.30;99.90;;;;;;5051550;28;20475;-87
2023/04/01 06:50:21;;;;;;;6.63;1.70;;;10.30;99.90;;;;;;5054204;28;20564;-86
2023/04/01 06:53:15;;;;;;;7.63;1.50;;;10.30;99.90;;;;;;5056046;28;20449;-87
2023/04/01 06:56:07;;;;;;;3.03;1.23;;;10.30;99.90;;;;;;5048676;28;20470;-87
2023/04/01 06:58:55;;;;;;;3.53;1.20;;;10.30;99.90;;;;;;5055148;28;20450;-87
2023/04/01 07:01:43;;;;;;;5.77;1.60;;;10.30;99.90;;;;;;5052112;28;20483;-86
2023/04/01 07:04:32;;;;;;;5.47;1.10;;;10.30;99.90;;;;;;5058542;28;20654;-87
2023/04/01 07:07:27;;;;;;;8.33;1.80;;;10.30;99.90;;;;;;5051750;28;20477;-86
2023/04/01 07:10:18;;;;;;;4.80;1.10;;;10.40;99.90;;;;;;5054087;28;20408;-86
2023/04/01 07:13:09;;;;;;;3.10;1.07;;;10.40;99.90;;;;;;5059567;28;20796;-86
2023/04/01 07:16:09;;;;;;;3.27;1.10;;;10.40;99.90;;;;;;5050732;28;20544;-87
2023/04/01 07:19:01;;;;;;;3.83;1.10;;;10.40;99.90;;;;;;5050875;28;20433;-87
2023/04/01 07:21:51;;;;;;;3.80;1.20;;;10.40;99.90;;;;;;5048508;28;20425;-87
2023/04/01 07:24:42;;;;;;;2.13;0.90;;;10.40;99.90;;;;;;5043935;28;20510;-86
2023/04/01 07:27:28;;;;;;;4.83;1.20;;;10.40;99.90;;;;;;5048455;28;20668;-87
2023/04/01 07:30:20;;;;;;;3.87;1.07;;;10.40;99.90;;;;;;5056930;28;20413;-87
2023/04/01 07:33:12;;;;;;;4.50;1.23;;;10.40;99.90;;;;;;5051175;28;20438;-87
2023/04/01 07:36:02;;;;;;;9.47;4.27;;;10.40;99.90;;;;;;5049429;28;20474;-86
2023/04/01 07:39:02;;;;;;;3.63;1.30;;;10.40;99.90;;;;;;5057496;28;20494;-88
2023/04/01 07:41:56;;;;;;;8.90;1.20;;;10.40;99.90;;;;;;5048591;28;20831;-87
2023/04/01 07:44:51;;;;;;;1.67;0.90;;;10.40;99.90;;;;;;5047446;28;20461;-86
2023/04/01 07:47:59;;;;;;;2.77;1.00;;;10.40;99.90;;;;;;5050969;28;20616;-86
2023/04/01 07:50:54;;;;;;;4.07;1.30;;;10.30;99.90;;;;;;5044653;28;20451;-87
2023/04/01 07:53:50;;;;;;;4.10;0.90;;;10.40;99.90;;;;;;5063667;28;20445;-86
2023/04/01 07:56:43;;;;;;;2.43;0.97;;;10.40;99.90;;;;;;5045198;28;20473;-86
2023/04/01 07:59:40;;;;;;;4.97;1.43;;;10.40;99.90;;;;;;5053258;28;20468;-86
2023/04/01 08:02:47;;;;;;;4.03;1.00;;;10.30;99.90;;;;;;5060706;28;20428;-86
2023/04/01 08:05:40;;;;;;;2.60;1.00;;;10.30;99.90;;;;;;5054148;28;20588;-87
2023/04/01 08:08:36;;;;;;;5.33;1.10;;;10.30;99.90;;;;;;5068118;22;20439;-72
2023/04/01 08:11:31;;;;;;;1.97;1.07;;;10.30;99.90;;;;;;5069817;28;20421;-72
2023/04/01 08:14:27;;;;;;;3.77;1.27;;;10.30;99.90;;;;;;5071418;28;20961;-72
2023/04/01 08:17:21;;;;;;;11.33;1.50;;;10.30;99.90;;;;;;5063110;28;20457;-72
2023/04/01 08:20:26;;;;;;;3.63;1.17;;;10.20;99.90;;;;;;5052346;28;21518;-72
2023/04/01 08:23:15;;;;;;;2.60;0.80;;;10.20;99.90;;;;;;5049720;28;20505;-72
2023/04/01 08:26:07;;;;;;;15.03;1.47;;;10.20;99.90;;;;;;5036472;28;20459;-73
2023/04/01 08:28:58;;;;;;;1.80;0.80;;;10.10;99.90;;;;;;5066059;22;20518;-74
2023/04/01 08:31:49;;;;;;;3.17;0.90;;;10.20;99.90;;;;;;5072026;28;20438;-74
2023/04/01 08:34:40;;;;;;;4.07;0.70;;;10.20;99.90;;;;;;5069163;28;20810;-73
2023/04/01 08:37:32;;;;;;;4.80;1.00;;;10.20;99.90;;;;;;5068805;28;20540;-74
2023/04/01 08:40:44;;;;;;;5.40;1.37;;;10.20;99.90;;;;;;5050177;28;20997;-73
2023/04/01 08:43:55;;;;;;;4.90;1.20;;;10.20;99.90;;;;;;5052980;28;21000;-74
2023/04/01 08:47:13;;;;;;;5.47;1.60;;;10.10;99.90;;;;;;5042756;28;20458;-73
2023/04/01 08:50:33;;;;;;;7.03;1.63;;;10.10;99.90;;;;;;5051639;28;20485;-73
2023/04/01 08:53:30;;;;;;;5.20;1.67;;;10.10;99.90;;;;;;5059116;28;20415;-74
2023/04/01 08:56:22;;;;;;;2.27;0.93;;;10.10;99.90;;;;;;5046087;28;20450;-73
2023/04/01 08:59:25;;;;;;;3.33;1.20;;;10.10;99.90;;;;;;5057384;28;20491;-74
2023/04/01 09:02:44;;;;;;;3.23;0.97;;;10.10;99.90;;;;;;5057303;28;20456;-74
2023/04/01 09:05:47;;;;;;;2.20;1.00;;;10.10;99.90;;;;;;5051460;28;20450;-74
2023/04/01 09:08:49;;;;;;;3.10;1.17;;;10.20;99.90;;;;;;5059915;28;20816;-74
2023/04/01 09:11:46;;;;;;;1.83;0.90;;;10.20;99.90;;;;;;5056362;28;20472;-74
2023/04/01 09:15:08;;;;;;;2.70;1.50;;;10.20;99.90;;;;;;5056476;28;20451;-73
2023/04/01 09:18:40;;;;;;;5.23;1.23;;;10.20;99.90;;;;;;5053718;28;20431;-73
2023/04/01 09:21:44;;;;;;;3.40;1.00;;;10.20;99.90;;;;;;5057783;28;20859;-74
2023/04/01 09:24:47;;;;;;;4.23;1.00;;;10.10;99.90;;;;;;5040850;28;20434;-73
2023/04/01 09:27:37;;;;;;;2.40;0.90;;;10.10;99.90;;;;;;5046571;28;20401;-74
2023/04/01 09:30:59;;;;;;;2.07;1.00;;;10.10;99.90;;;;;;5059075;28;20502;-73
2023/04/01 09:34:20;;;;;;;2.33;0.70;;;10.10;99.90;;;;;;5055269;28;21003;-74
2023/04/01 09:37:21;;;;;;;3.27;1.07;;;10.20;99.90;;;;;;5055370;28;20399;-74
2023/04/01 09:40:19;;;;;;;4.27;1.60;;;10.20;99.90;;;;;;5053746;28;20562;-75
2023/04/01 09:43:23;;;;;;;3.63;1.03;;;10.20;99.90;;;;;;5059122;28;20504;-74
2023/04/01 09:46:20;;;;;;;3.80;1.20;;;10.20;99.90;;;;;;5048704;28;20470;-73
2023/04/01 09:49:21;;;;;;;1.97;1.00;;;10.20;99.90;;;;;;5051455;28;20465;-73
2023/04/01 09:52:18;;;;;;;3.20;1.13;;;10.20;99.90;;;;;;5045917;28;20793;-74
2023/04/01 09:55:29;;;;;;;3.30;1.00;;;10.20;99.90;;;;;;5052579;28;20453;-74
2023/04/01 09:59:05;;;;;;;3.80;0.93;;;10.20;99.90;;;;;;5045630;28;20434;-74
2023/04/01 10:02:23;;;;;;;1.37;0.77;;;10.20;99.90;;;;;;4967769;28;20803;-74
2023/04/01 10:05:39;;;;;;;2.17;0.90;;;10.20;99.90;;;;;;4950178;28;20449;-74
2023/04/01 10:08:52;;;;;;;1.57;0.77;;;10.30;99.90;;;;;;5058373;28;20447;-74
2023/04/01 10:14:53;;;;;;;2.17;0.70;;;10.30;99.90;;;;;;5109009;27;20982;-73
2023/04/01 10:18:11;;;;;;;2.07;0.67;;;10.30;99.90;;;;;;5113238;28;21151;-73
2023/04/01 10:21:21;;;;;;;3.53;1.00;;;10.40;99.90;;;;;;5083882;28;20498;-73
2023/04/01 10:24:44;;;;;;;2.10;0.90;;;10.40;99.90;;;;;;5092250;28;20417;-73
2023/04/01 10:28:13;;;;;;;2.13;0.80;;;10.30;99.90;;;;;;5086225;28;20428;-73
2023/04/01 10:31:27;;;;;;;3.57;1.00;;;10.40;99.90;;;;;;5091869;28;20797;-74
2023/04/01 10:34:45;;;;;;;1.83;0.90;;;10.40;99.90;;;;;;5080585;28;20497;-73
2023/04/01 10:38:00;;;;;;;2.73;1.10;;;10.30;99.90;;;;;;5085243;28;20433;-73
2023/04/01 10:41:00;;;;;;;1.50;1.00;;;10.30;99.90;;;;;;5071113;28;20435;-73
2023/04/01 10:44:20;;;;;;;1.90;1.00;;;10.40;99.90;;;;;;5085944;28;20469;-73
2023/04/01 10:47:45;;;;;;;2.13;0.80;;;10.30;99.90;;;;;;5092855;28;20402;-73
2023/04/01 10:51:10;;;;;;;2.63;0.87;;;10.30;99.90;;;;;;5084078;28;20486;-73
2023/04/01 10:54:22;;;;;;;5.60;1.10;;;10.40;99.90;;;;;;5085516;28;20834;-73
2023/04/01 10:57:38;;;;;;;3.40;0.87;;;10.40;99.90;;;;;;5089782;28;20424;-73
2023/04/01 11:00:38;;;;;;;6.00;1.07;;;10.50;99.90;;;;;;5089691;28;20420;-73
2023/04/01 11:03:57;;;;;;;1.90;0.80;;;10.40;99.90;;;;;;5094077;28;20418;-73
2023/04/01 11:07:31;;;;;;;1.90;0.90;;;10.40;99.90;;;;;;5084339;28;20455;-73
2023/04/01 11:11:09;;;;;;;2.20;0.80;;;10.50;99.90;;;;;;5086389;28;20538;-73
2023/04/01 11:14:26;;;;;;;3.00;0.97;;;10.40;99.90;;;;;;5049518;28;21081;-73
2023/04/01 11:17:50;;;;;;;2.80;1.30;;;10.40;99.90;;;;;;5090339;28;20427;-73
2023/04/01 11:21:05;;;;;;;2.17;1.00;;;10.50;99.90;;;;;;5083966;28;20911;-73
2023/04/01 11:24:22;;;;;;;2.30;1.50;;;10.50;99.90;;;;;;5079677;28;20517;-74
2023/04/01 11:27:21;;;;;;;2.27;1.00;;;10.50;99.90;;;;;;5072871;28;20415;-73
2023/04/01 11:30:21;;;;;;;2.17;0.90;;;10.60;99.90;;;;;;5076312;28;20551;-73
2023/04/01 11:33:15;;;;;;;2.03;1.07;;;10.60;99.90;;;;;;5076889;28;20437;-72
2023/04/01 11:36:21;;;;;;;2.53;1.03;;;10.50;99.90;;;;;;5073471;28;20568;-73
2023/04/01 11:39:25;;;;;;;3.00;1.00;;;10.50;99.90;;;;;;5080706;28;20501;-73
2023/04/01 11:42:21;;;;;;;5.90;1.40;;;10.60;99.90;;;;;;5077580;28;20387;-73
2023/04/01 11:45:23;;;;;;;2.53;1.00;;;10.60;99.90;;;;;;5066420;28;20807;-73
2023/04/01 11:48:27;;;;;;;1.70;1.00;;;10.70;99.90;;;;;;5073611;28;20467;-73
2023/04/01 11:51:34;;;;;;;1.67;0.93;;;10.80;99.90;;;;;;5075785;28;20567;-73
2023/04/01 11:54:38;;;;;;;2.60;1.60;;;10.80;99.90;;;;;;5072850;28;20596;-72
2023/04/01 11:57:47;;;;;;;2.43;0.90;;;10.70;99.90;;;;;;5071597;28;20436;-73
2023/04/01 12:00:56;;;;;;;4.70;1.27;;;10.70;99.90;;;;;;5075659;28;20892;-73
2023/04/01 12:04:01;;;;;;;1.93;1.10;;;10.70;99.90;;;;;;5067556;28;20450;-73
2023/04/01 12:06:53;;;;;;;2.80;1.20;;;10.80;99.90;;;;;;5080790;28;21321;-73
2023/04/01 12:09:49;;;;;;;3.00;1.00;;;10.70;99.90;;;;;;5068671;28;20502;-73
2023/04/01 12:12:42;;;;;;;2.70;1.37;;;10.70;99.90;;;;;;5077332;28;20442;-73
2023/04/01 12:15:37;;;;;;;3.47;1.07;;;10.70;99.90;;;;;;5065089;28;20438;-73
2023/04/01 12:18:33;;;;;;;4.60;1.10;;;10.70;99.90;;;;;;5080387;28;20976;-73
2023/04/01 12:21:26;;;;;;;2.10;1.40;;;10.70;99.90;;;;;;5072583;28;21155;-73
2023/04/01 12:24:36;;;;;;;1.50;0.97;;;10.70;99.90;;;;;;5069200;28;20467;-73
2023/04/01 12:27:37;;;;;;;2.87;1.10;;;10.80;99.90;;;;;;5077666;28;20437;-73
2023/04/01 12:30:36;;;;;;;2.27;1.30;;;10.80;99.90;;;;;;5071005;28;20426;-72
2023/04/01 12:33:37;;;;;;;5.63;1.83;;;10.80;99.90;;;;;;5066801;28;20470;-73
2023/04/01 12:36:51;;;;;;;3.60;1.43;;;10.80;99.90;;;;;;5080482;28;20432;-73
2023/04/01 12:39:58;;;;;;;1.30;0.80;;;10.80;99.90;;;;;;5077177;28;20454;-73
2023/04/01 12:43:00;;;;;;;2.07;0.90;;;10.80;99.90;;;;;;5064491;28;20447;-72
2023/04/01 12:45:54;;;;;;;3.00;1.80;;;10.80;99.90;;;;;;5075329;28;20475;-73
2023/04/01 12:49:17;;;;;;;2.90;1.57;;;10.90;99.90;;;;;;5069040;28;20499;-73
2023/04/01 12:52:11;;;;;;;3.20;2.07;;;10.90;99.90;;;;;;5071672;28;20461;-73
2023/04/01 12:55:26;;;;;;;5.10;1.70;;;10.90;99.90;;;;;;5066447;28;21021;-73
2023/04/01 12:58:50;;;;;;;2.83;1.50;;;10.90;99.90;;;;;;5076416;28;20778;-74
2023/04/01 13:01:51;;;;;;;1.90;1.20;;;10.90;99.90;;;;;;5075607;28;20450;-73
2023/04/01 13:04:57;;;;;;;4.70;2.70;;;10.90;99.90;;;;;;5064123;28;20451;-73
2023/04/01 13:08:08;;;;;;;2.93;0.97;;;10.90;99.90;;;;;;5059600;28;20444;-73
2023/04/01 13:11:18;;;;;;;3.73;2.50;;;10.80;99.90;;;;;;5058993;28;20450;-71
2023/04/01 13:14:31;;;;;;;4.50;1.40;;;10.90;99.90;;;;;;5058354;28;20862;-71
2023/04/01 13:17:22;;;;;;;4.60;1.33;;;10.90;99.90;;;;;;5049295;28;20448;-73
2023/04/01 13:20:20;;;;;;;1.57;0.77;;;11.00;99.90;;;;;;5066759;28;20991;-73
2023/04/01 13:23:15;;;;;;;3.53;1.30;;;10.90;99.90;;;;;;5068360;28;20869;-73
2023/04/01 13:26:12;;;;;;;3.80;1.77;;;10.90;99.90;;;;;;5074437;28;20457;-74
2023/04/01 13:29:05;;;;;;;8.37;1.40;;;11.00;99.90;;;;;;5067757;28;20835;-72
2023/04/01 13:32:11;;;;;;;3.20;1.20;;;11.00;99.90;;;;;;5069130;28;20967;-72
2023/04/01 13:35:21;;;;;;;1.97;1.23;;;11.00;99.90;;;;;;5071241;28;20542;-73
2023/04/01 13:38:28;;;;;;;2.40;1.27;;;11.00;99.90;;;;;;5068632;28;20602;-74
2023/04/01 13:41:27;;;;;;;2.30;1.20;;;11.10;99.90;;;;;;5071417;28;20453;-73
2023/04/01 13:44:17;;;;;;;2.40;1.27;;;11.20;99.90;;;;;;5061903;28;20814;-73
2023/04/01 13:47:25;;;;;;;2.33;1.30;;;11.10;99.90;;;;;;5064614;28;20473;-73
2023/04/01 13:50:43;;;;;;;4.43;1.27;;;11.10;99.90;;;;;;5064257;28;20425;-73
2023/04/01 13:54:00;;;;;;;1.77;0.90;;;11.10;99.90;;;;;;5062670;28;20546;-73
2023/04/01 13:56:58;;;;;;;1.73;0.77;;;11.10;99.90;;;;;;5062318;28;20930;-73
2023/04/01 14:00:17;;;;;;;1.73;0.87;;;11.00;99.90;;;;;;5066858;28;20472;-72
2023/04/01 14:03:21;;;;;;;1.80;1.07;;;11.00;99.90;;;;;;5056181;28;20817;-73
2023/04/01 14:06:17;;;;;;;1.57;0.87;;;11.00;99.90;;;;;;5058313;28;20440;-73
2023/04/01 14:09:33;;;;;;;2.60;1.07;;;11.00;99.90;;;;;;5058325;28;20979;-73
2023/04/01 14:12:30;;;;;;;1.73;0.90;;;11.00;99.90;;;;;;5058834;28;20443;-72
2023/04/01 14:15:30;;;;;;;2.53;1.00;;;11.00;99.90;;;;;;5066012;28;20826;-73
2023/04/01 14:18:53;;;;;;;3.43;1.93;;;11.10;99.90;;;;;;5068679;28;20460;-73
2023/04/01 14:21:44;;;;;;;1.70;1.13;;;11.10;99.90;;;;;;5077014;28;20532;-74
2023/04/01 14:24:57;;;;;;;1.63;0.90;;;11.00;99.90;;;;;;5070572;28;20647;-73
2023/04/01 14:27:54;;;;;;;2.83;1.60;;;11.00;99.90;;;;;;5067379;28;20429;-71
2023/04/01 14:30:55;;;;;;;5.30;2.23;;;11.00;99.90;;;;;;5059984;23;20506;-73
2023/04/01 14:33:53;;;;;;;4.80;1.50;;;10.90;99.90;;;;;;5020005;28;20445;-73
2023/04/01 14:37:00;;;;;;;5.27;1.70;;;10.90;99.90;;;;;;5028462;28;20415;-74
2023/04/01 14:40:15;;;;;;;1.80;1.10;;;11.00;99.90;;;;;;5026722;28;21002;-74
2023/04/01 14:43:32;;;;;;;3.50;1.00;;;11.00;99.90;;;;;;5018953;28;20417;-73
2023/04/01 14:46:45;;;;;;;2.07;0.90;;;11.00;99.90;;;;;;4971056;28;20453;-74
2023/04/01 14:49:36;;;;;;;1.50;1.10;;;11.00;99.90;;;;;;5039728;28;20489;-74
2023/04/01 14:52:28;;;;;;;1.60;0.80;;;11.00;99.90;;;;;;5020368;28;20459;-73
2023/04/01 14:55:27;;;;;;;2.70;1.27;;;11.00;99.90;;;;;;5036286;28;20448;-73
2023/04/01 14:58:15;;;;;;;3.63;1.30;;;11.00;99.90;;;;;;5038798;28;20778;-74
2023/04/01 15:01:14;;;;;;;2.53;0.93;;;11.00;99.90;;;;;;5044500;28;20572;-73
2023/04/01 15:04:11;;;;;;;4.10;0.70;;;10.90;99.90;;;;;;5034145;28;20401;-74
2023/04/01 15:07:07;;;;;;;1.80;1.23;;;10.90;99.90;;;;;;5035406;28;20431;-73
2023/04/01 15:10:02;;;;;;;2.50;1.00;;;11.00;99.90;;;;;;5033620;28;20449;-73
2023/04/01 15:12:59;;;;;;;1.40;0.90;;;11.10;99.90;;;;;;5026651;28;20530;-74
2023/04/01 15:16:03;;;;;;;2.00;1.00;;;11.10;99.90;;;;;;5034351;28;20635;-74
2023/04/01 15:18:58;;;;;;;2.50;1.30;;;11.10;99.90;;;;;;5040807;28;20511;-74
2023/04/01 15:22:13;;;;;;;1.97;1.13;;;11.10;99.90;;;;;;5034297;28;20445;-74
2023/04/01 15:25:18;;;;;;;2.70;1.10;;;11.10;99.90;;;;;;5040649;28;20978;-74